Terminal Aerodrome Forecast
Issued by NWS Hastings, NE

Home | Current Version | Previous Version | Text Only | Print | Product List | Glossary On
Versions: 1 2 3 4 5 6 7 8 9 10 11 12 13 14 15 16 17
000
FTUS43 KGID 211513 AAB
TAFGRI
TAF AMD
KGRI 211513Z 2115/2212 24015KT P6SM BKN035 BKN250
     FM211600 33024G34KT P6SM SCT050 BKN150
     FM212200 32017G24KT P6SM FEW050 SCT200
     FM220000 32008KT P6SM FEW050 FEW250
     FM220300 28004KT P6SM SKC=

USA.gov is the U.S. government's official web portal to all federal, state and local government web resources and services.